Terminal Aerodrome Forecast
Issued by NWS

Home | Current Version | Previous Version | Text Only | Print | Product List | Glossary On
Versions: 1 2 3 4 5 6 7 8 9 10 11 12 13 14 15 16 17 18 19 20 21
928
FTUS46 KPDT 072320
TAFDLS
TAF
KDLS 072320Z 0800/0824 11010KT P6SM FEW030 SCT250
     FM080400 11005KT P6SM BKN200
     FM081000 11005KT P6SM BKN150 OVC200
     FM081500 11006KT P6SM BKN100 OVC120
     FM081800 10010KT 1SM -SN BR BKN015 OVC025=

USA.gov is the U.S. government's official web portal to all federal, state and local government web resources and services.